sensor_id;sensor_type;location;lat;lon;timestamp;pressure;altitude;pressure_sealevel;temperature;humidity
44825;BME280;30542;47.928;2.138;2024-01-27T00:01:10;102372.38;;;20.32;43.56
44825;BME280;30542;47.928;2.138;2024-01-27T00:06:11;102365.59;;;20.30;43.50
44825;BME280;30542;47.928;2.138;2024-01-27T00:11:11;102353.66;;;20.26;43.46
44825;BME280;30542;47.928;2.138;2024-01-27T00:16:12;102354.09;;;20.23;43.42
44825;BME280;30542;47.928;2.138;2024-01-27T00:21:12;102361.94;;;20.18;43.71
44825;BME280;30542;47.928;2.138;2024-01-27T00:26:13;102366.72;;;20.16;43.46
44825;BME280;30542;47.928;2.138;2024-01-27T00:31:13;102353.94;;;20.11;43.67
44825;BME280;30542;47.928;2.138;2024-01-27T00:36:13;102355.22;;;20.08;43.35
44825;BME280;30542;47.928;2.138;2024-01-27T00:41:17;102359.34;;;20.04;43.74
44825;BME280;30542;47.928;2.138;2024-01-27T00:46:18;102358.16;;;20.00;43.56
44825;BME280;30542;47.928;2.138;2024-01-27T00:51:18;102362.88;;;19.98;43.47
44825;BME280;30542;47.928;2.138;2024-01-27T00:56:19;102355.31;;;19.95;43.45
44825;BME280;30542;47.928;2.138;2024-01-27T01:01:19;102356.75;;;19.91;43.59
44825;BME280;30542;47.928;2.138;2024-01-27T01:06:19;102362.53;;;19.88;43.60
44825;BME280;30542;47.928;2.138;2024-01-27T01:11:20;102346.91;;;19.85;43.44
44825;BME280;30542;47.928;2.138;2024-01-27T01:16:20;102351.66;;;19.83;43.35
44825;BME280;30542;47.928;2.138;2024-01-27T01:21:21;102346.72;;;19.80;43.28
44825;BME280;30542;47.928;2.138;2024-01-27T01:26:21;102335.63;;;19.76;43.35
44825;BME280;30542;47.928;2.138;2024-01-27T01:31:22;102330.50;;;19.75;43.16
44825;BME280;30542;47.928;2.138;2024-01-27T01:36:22;102331.97;;;19.71;43.35
44825;BME280;30542;47.928;2.138;2024-01-27T01:41:22;102329.09;;;19.66;43.54
44825;BME280;30542;47.928;2.138;2024-01-27T01:46:23;102330.34;;;19.63;43.56
44825;BME280;30542;47.928;2.138;2024-01-27T01:51:25;102327.06;;;19.61;43.60
44825;BME280;30542;47.928;2.138;2024-01-27T01:56:25;102343.28;;;19.59;43.31
44825;BME280;30542;47.928;2.138;2024-01-27T02:01:27;102346.38;;;19.56;43.31
44825;BME280;30542;47.928;2.138;2024-01-27T02:06:27;102338.56;;;19.55;43.11
44825;BME280;30542;47.928;2.138;2024-01-27T02:11:27;102333.63;;;19.52;43.11
44825;BME280;30542;47.928;2.138;2024-01-27T02:16:28;102333.03;;;19.50;43.28
44825;BME280;30542;47.928;2.138;2024-01-27T02:21:28;102332.41;;;19.48;43.27
44825;BME280;30542;47.928;2.138;2024-01-27T02:26:29;102320.09;;;19.47;43.37
44825;BME280;30542;47.928;2.138;2024-01-27T02:31:29;102290.19;;;19.25;43.23
44825;BME280;30542;47.928;2.138;2024-01-27T02:36:30;102316.84;;;19.38;43.40
44825;BME280;30542;47.928;2.138;2024-01-27T02:41:30;102308.59;;;19.40;43.25
44825;BME280;30542;47.928;2.138;2024-01-27T02:46:35;102306.34;;;19.36;43.36
44825;BME280;30542;47.928;2.138;2024-01-27T02:51:35;102291.56;;;19.34;43.01
44825;BME280;30542;47.928;2.138;2024-01-27T02:56:36;102303.31;;;19.33;43.21
44825;BME280;30542;47.928;2.138;2024-01-27T03:01:36;102298.16;;;19.31;43.07
44825;BME280;30542;47.928;2.138;2024-01-27T03:06:37;102292.63;;;19.26;43.04
44825;BME280;30542;47.928;2.138;2024-01-27T03:11:37;102273.34;;;19.18;43.45
44825;BME280;30542;47.928;2.138;2024-01-27T03:16:37;102285.84;;;19.24;43.26
44825;BME280;30542;47.928;2.138;2024-01-27T03:21:38;102282.34;;;19.23;43.24
44825;BME280;30542;47.928;2.138;2024-01-27T03:26:38;102287.09;;;19.21;43.27
44825;BME280;30542;47.928;2.138;2024-01-27T03:31:39;102288.94;;;19.21;43.16
44825;BME280;30542;47.928;2.138;2024-01-27T03:36:39;102284.84;;;19.18;43.18
44825;BME280;30542;47.928;2.138;2024-01-27T03:41:40;102281.75;;;19.15;43.04
44825;BME280;30542;47.928;2.138;2024-01-27T03:46:40;102283.63;;;19.14;42.81
44825;BME280;30542;47.928;2.138;2024-01-27T03:51:41;102284.44;;;19.15;42.84
44825;BME280;30542;47.928;2.138;2024-01-27T03:56:41;102270.69;;;19.11;42.73
44825;BME280;30542;47.928;2.138;2024-01-27T04:01:42;102288.16;;;19.13;42.62
44825;BME280;30542;47.928;2.138;2024-01-27T04:06:42;102288.75;;;19.16;42.47
44825;BME280;30542;47.928;2.138;2024-01-27T04:11:43;102287.50;;;19.18;42.44
44825;BME280;30542;47.928;2.138;2024-01-27T04:16:43;102289.78;;;19.21;42.75
44825;BME280;30542;47.928;2.138;2024-01-27T04:21:43;102285.03;;;19.23;42.42
44825;BME280;30542;47.928;2.138;2024-01-27T04:26:44;102275.78;;;19.26;42.61
44825;BME280;30542;47.928;2.138;2024-01-27T04:31:44;102275.38;;;19.29;42.56
44825;BME280;30542;47.928;2.138;2024-01-27T04:36:44;102288.09;;;19.33;42.45
44825;BME280;30542;47.928;2.138;2024-01-27T04:41:45;102271.41;;;19.38;42.51
44825;BME280;30542;47.928;2.138;2024-01-27T04:46:45;102276.94;;;19.43;42.29
44825;BME280;30542;47.928;2.138;2024-01-27T04:51:46;102275.72;;;19.46;42.39
44825;BME280;30542;47.928;2.138;2024-01-27T04:56:46;102272.81;;;19.47;42.42
44825;BME280;30542;47.928;2.138;2024-01-27T05:01:47;102267.03;;;19.50;42.32
44825;BME280;30542;47.928;2.138;2024-01-27T05:06:47;102271.13;;;19.53;42.23
44825;BME280;30542;47.928;2.138;2024-01-27T05:11:48;102262.28;;;19.59;41.92
44825;BME280;30542;47.928;2.138;2024-01-27T05:16:51;102264.94;;;19.66;42.12
44825;BME280;30542;47.928;2.138;2024-01-27T05:21:52;102271.06;;;19.73;41.90
44825;BME280;30542;47.928;2.138;2024-01-27T05:26:52;102258.50;;;19.73;41.72
44825;BME280;30542;47.928;2.138;2024-01-27T05:31:52;102256.03;;;19.78;41.83
44825;BME280;30542;47.928;2.138;2024-01-27T05:36:53;102268.50;;;19.91;41.25
44825;BME280;30542;47.928;2.138;2024-01-27T05:41:53;102276.47;;;19.98;41.41
44825;BME280;30542;47.928;2.138;2024-01-27T05:46:54;102280.75;;;20.05;41.19
44825;BME280;30542;47.928;2.138;2024-01-27T05:51:54;102278.03;;;20.12;41.23
44825;BME280;30542;47.928;2.138;2024-01-27T05:56:55;102286.00;;;20.19;41.15
44825;BME280;30542;47.928;2.138;2024-01-27T06:01:55;102291.31;;;20.25;41.20
44825;BME280;30542;47.928;2.138;2024-01-27T06:06:57;102295.78;;;20.31;41.32
44825;BME280;30542;47.928;2.138;2024-01-27T06:11:59;102288.75;;;20.37;40.67
44825;BME280;30542;47.928;2.138;2024-01-27T06:17:03;102275.75;;;20.41;40.56
44825;BME280;30542;47.928;2.138;2024-01-27T06:22:03;102277.16;;;20.43;40.49
44825;BME280;30542;47.928;2.138;2024-01-27T06:27:04;102276.34;;;20.43;40.36
44825;BME280;30542;47.928;2.138;2024-01-27T06:32:04;102285.81;;;20.45;40.50
44825;BME280;30542;47.928;2.138;2024-01-27T06:37:05;102270.84;;;20.38;40.45
44825;BME280;30542;47.928;2.138;2024-01-27T06:42:05;102284.75;;;20.46;40.23
44825;BME280;30542;47.928;2.138;2024-01-27T06:47:06;102282.50;;;20.50;40.32
44825;BME280;30542;47.928;2.138;2024-01-27T06:52:06;102269.28;;;20.55;40.18
44825;BME280;30542;47.928;2.138;2024-01-27T06:57:20;102252.25;;;20.49;40.00
44825;BME280;30542;47.928;2.138;2024-01-27T07:02:27;102267.34;;;20.62;40.01
44825;BME280;30542;47.928;2.138;2024-01-27T07:07:28;102275.97;;;20.64;39.85
44825;BME280;30542;47.928;2.138;2024-01-27T07:12:29;102258.03;;;20.65;39.89
44825;BME280;30542;47.928;2.138;2024-01-27T07:17:29;102269.94;;;20.69;39.48
44825;BME280;30542;47.928;2.138;2024-01-27T07:22:29;102261.50;;;20.72;39.35
44825;BME280;30542;47.928;2.138;2024-01-27T07:27:30;102253.84;;;20.75;39.32
44825;BME280;30542;47.928;2.138;2024-01-27T07:32:30;102244.38;;;20.73;39.41
44825;BME280;30542;47.928;2.138;2024-01-27T07:37:31;102255.03;;;20.79;39.29
44825;BME280;30542;47.928;2.138;2024-01-27T07:42:31;102278.59;;;20.89;39.27
44825;BME280;30542;47.928;2.138;2024-01-27T07:47:31;102278.75;;;20.94;39.29
44825;BME280;30542;47.928;2.138;2024-01-27T07:52:32;102288.59;;;21.00;39.70
44825;BME280;30542;47.928;2.138;2024-01-27T07:57:32;102289.78;;;21.04;40.08
44825;BME280;30542;47.928;2.138;2024-01-27T08:02:33;102295.66;;;21.13;40.43
44825;BME280;30542;47.928;2.138;2024-01-27T08:07:33;102292.94;;;21.20;40.46
44825;BME280;30542;47.928;2.138;2024-01-27T08:12:33;102304.38;;;21.27;40.45
44825;BME280;30542;47.928;2.138;2024-01-27T08:17:34;102311.56;;;21.33;40.71
44825;BME280;30542;47.928;2.138;2024-01-27T08:22:34;102312.31;;;21.40;40.56
44825;BME280;30542;47.928;2.138;2024-01-27T08:27:35;102332.41;;;21.49;40.40
44825;BME280;30542;47.928;2.138;2024-01-27T08:32:35;102327.19;;;21.54;40.11
44825;BME280;30542;47.928;2.138;2024-01-27T08:37:36;102316.00;;;21.39;36.04
44825;BME280;30542;47.928;2.138;2024-01-27T08:42:39;102308.88;;;21.33;37.41
44825;BME280;30542;47.928;2.138;2024-01-27T08:47:40;102293.53;;;21.40;37.79
44825;BME280;30542;47.928;2.138;2024-01-27T08:52:40;102287.50;;;21.45;38.23
44825;BME280;30542;47.928;2.138;2024-01-27T08:57:40;102265.13;;;21.51;38.84
44825;BME280;30542;47.928;2.138;2024-01-27T09:02:41;102264.81;;;21.59;39.10
44825;BME280;30542;47.928;2.138;2024-01-27T09:07:41;102251.09;;;21.67;39.28
44825;BME280;30542;47.928;2.138;2024-01-27T09:12:42;102246.34;;;21.81;39.42
44825;BME280;30542;47.928;2.138;2024-01-27T09:17:42;102245.34;;;21.94;39.66
44825;BME280;30542;47.928;2.138;2024-01-27T09:22:43;102244.44;;;22.00;39.71
44825;BME280;30542;47.928;2.138;2024-01-27T09:27:45;102236.94;;;22.02;39.75
44825;BME280;30542;47.928;2.138;2024-01-27T09:32:45;102253.41;;;22.05;39.96
44825;BME280;30542;47.928;2.138;2024-01-27T09:37:45;102261.25;;;22.07;39.81
44825;BME280;30542;47.928;2.138;2024-01-27T09:42:52;102254.59;;;22.09;40.21
44825;BME280;30542;47.928;2.138;2024-01-27T09:47:56;102243.84;;;22.09;41.25
44825;BME280;30542;47.928;2.138;2024-01-27T09:52:57;102245.06;;;22.14;41.21
44825;BME280;30542;47.928;2.138;2024-01-27T09:57:58;102245.50;;;22.11;41.39
44825;BME280;30542;47.928;2.138;2024-01-27T10:02:58;102240.75;;;22.13;41.44
44825;BME280;30542;47.928;2.138;2024-01-27T10:07:59;102249.22;;;22.09;41.26
44825;BME280;30542;47.928;2.138;2024-01-27T10:13:01;102249.47;;;22.08;41.50
44825;BME280;30542;47.928;2.138;2024-01-27T10:18:07;102247.34;;;22.10;41.63
44825;BME280;30542;47.928;2.138;2024-01-27T10:23:11;102249.81;;;22.12;41.63
44825;BME280;30542;47.928;2.138;2024-01-27T10:28:12;102256.50;;;22.21;41.63
44825;BME280;30542;47.928;2.138;2024-01-27T10:33:12;102258.25;;;22.27;41.44
44825;BME280;30542;47.928;2.138;2024-01-27T10:38:15;102257.91;;;22.35;41.83
44825;BME280;30542;47.928;2.138;2024-01-27T10:43:17;102256.53;;;22.44;41.85
44825;BME280;30542;47.928;2.138;2024-01-27T10:48:19;102249.50;;;22.55;41.67
44825;BME280;30542;47.928;2.138;2024-01-27T10:53:23;102252.09;;;22.62;41.92
44825;BME280;30542;47.928;2.138;2024-01-27T10:58:31;102248.09;;;22.64;41.60
44825;BME280;30542;47.928;2.138;2024-01-27T11:03:38;102237.16;;;22.66;41.32
44825;BME280;30542;47.928;2.138;2024-01-27T11:08:39;102221.03;;;22.66;41.39
44825;BME280;30542;47.928;2.138;2024-01-27T11:13:40;102221.03;;;22.66;41.48
44825;BME280;30542;47.928;2.138;2024-01-27T11:18:42;102220.06;;;22.72;41.51
44825;BME280;30542;47.928;2.138;2024-01-27T11:23:43;102201.06;;;22.73;41.26
44825;BME280;30542;47.928;2.138;2024-01-27T11:28:45;102198.94;;;22.75;40.77
44825;BME280;30542;47.928;2.138;2024-01-27T11:33:49;102188.19;;;22.75;41.02
44825;BME280;30542;47.928;2.138;2024-01-27T11:38:52;102176.19;;;22.66;41.41
44825;BME280;30542;47.928;2.138;2024-01-27T11:43:57;102175.47;;;22.71;41.56
44825;BME280;30542;47.928;2.138;2024-01-27T11:48:58;102165.19;;;22.68;41.94
44825;BME280;30542;47.928;2.138;2024-01-27T11:53:58;102170.22;;;22.64;42.16
44825;BME280;30542;47.928;2.138;2024-01-27T11:58:58;102164.53;;;22.61;42.55
44825;BME280;30542;47.928;2.138;2024-01-27T12:04:00;102150.16;;;22.55;42.65
44825;BME280;30542;47.928;2.138;2024-01-27T12:09:00;102138.63;;;22.43;42.79
44825;BME280;30542;47.928;2.138;2024-01-27T12:14:01;102149.59;;;22.41;43.09
44825;BME280;30542;47.928;2.138;2024-01-27T12:19:01;102135.38;;;22.29;43.13
44825;BME280;30542;47.928;2.138;2024-01-27T12:24:02;102135.13;;;22.30;43.59
44825;BME280;30542;47.928;2.138;2024-01-27T12:29:03;102138.75;;;22.24;43.78
44825;BME280;30542;47.928;2.138;2024-01-27T12:34:03;102147.53;;;22.20;43.86
44825;BME280;30542;47.928;2.138;2024-01-27T12:39:03;102129.88;;;22.12;44.29
44825;BME280;30542;47.928;2.138;2024-01-27T12:44:06;102126.25;;;22.06;44.47
44825;BME280;30542;47.928;2.138;2024-01-27T12:49:07;102109.22;;;22.01;44.84
44825;BME280;30542;47.928;2.138;2024-01-27T12:54:08;102106.16;;;21.97;44.86
44825;BME280;30542;47.928;2.138;2024-01-27T12:59:09;102095.56;;;21.91;45.16
44825;BME280;30542;47.928;2.138;2024-01-27T13:04:09;102077.50;;;21.86;45.35
44825;BME280;30542;47.928;2.138;2024-01-27T13:09:10;102066.88;;;21.79;45.25
44825;BME280;30542;47.928;2.138;2024-01-27T13:14:14;102064.91;;;21.75;45.06
44825;BME280;30542;47.928;2.138;2024-01-27T13:19:16;102056.13;;;21.68;45.17
44825;BME280;30542;47.928;2.138;2024-01-27T13:24:16;102057.28;;;21.60;45.26
44825;BME280;30542;47.928;2.138;2024-01-27T13:29:17;102037.59;;;21.54;45.08
44825;BME280;30542;47.928;2.138;2024-01-27T13:34:17;102031.53;;;21.47;45.20
44825;BME280;30542;47.928;2.138;2024-01-27T13:39:18;102021.75;;;21.41;45.08
44825;BME280;30542;47.928;2.138;2024-01-27T13:44:18;102018.94;;;21.36;45.20
44825;BME280;30542;47.928;2.138;2024-01-27T13:49:19;102009.09;;;21.30;45.16
44825;BME280;30542;47.928;2.138;2024-01-27T13:54:20;101995.59;;;21.25;45.08
44825;BME280;30542;47.928;2.138;2024-01-27T13:59:20;101993.00;;;21.18;45.12
44825;BME280;30542;47.928;2.138;2024-01-27T14:04:21;101996.38;;;21.14;45.02
44825;BME280;30542;47.928;2.138;2024-01-27T14:09:25;101986.00;;;21.05;45.18
44825;BME280;30542;47.928;2.138;2024-01-27T14:14:27;101975.16;;;21.00;45.05
44825;BME280;30542;47.928;2.138;2024-01-27T14:19:28;101975.41;;;20.99;44.91
44825;BME280;30542;47.928;2.138;2024-01-27T14:24:28;101985.28;;;20.98;44.86
44825;BME280;30542;47.928;2.138;2024-01-27T14:29:29;101966.41;;;20.93;44.96
44825;BME280;30542;47.928;2.138;2024-01-27T14:34:29;101977.72;;;20.95;45.46
44825;BME280;30542;47.928;2.138;2024-01-27T14:39:30;101980.84;;;20.92;45.72
44825;BME280;30542;47.928;2.138;2024-01-27T14:44:31;101971.41;;;20.90;46.00
44825;BME280;30542;47.928;2.138;2024-01-27T14:49:32;101938.66;;;20.76;46.39
44825;BME280;30542;47.928;2.138;2024-01-27T14:54:33;101951.00;;;20.77;46.52
44825;BME280;30542;47.928;2.138;2024-01-27T14:59:35;101935.41;;;20.74;46.68
44825;BME280;30542;47.928;2.138;2024-01-27T15:04:39;101933.19;;;20.71;46.94
44825;BME280;30542;47.928;2.138;2024-01-27T15:09:39;101933.88;;;20.66;47.16
44825;BME280;30542;47.928;2.138;2024-01-27T15:14:39;101933.50;;;20.63;47.21
44825;BME280;30542;47.928;2.138;2024-01-27T15:19:40;101934.44;;;20.68;47.14
44825;BME280;30542;47.928;2.138;2024-01-27T15:24:40;101924.91;;;20.72;47.27
44825;BME280;30542;47.928;2.138;2024-01-27T15:29:41;101923.03;;;20.73;47.26
44825;BME280;30542;47.928;2.138;2024-01-27T15:34:41;101920.50;;;20.78;47.11
44825;BME280;30542;47.928;2.138;2024-01-27T15:39:41;101920.84;;;20.81;47.12
44825;BME280;30542;47.928;2.138;2024-01-27T15:44:43;101915.63;;;20.87;47.10
44825;BME280;30542;47.928;2.138;2024-01-27T15:49:44;101914.69;;;20.93;47.21
44825;BME280;30542;47.928;2.138;2024-01-27T15:54:44;101925.53;;;20.98;47.16
44825;BME280;30542;47.928;2.138;2024-01-27T15:59:48;101940.34;;;21.00;47.01
44825;BME280;30542;47.928;2.138;2024-01-27T16:04:48;101942.56;;;21.03;46.85
44825;BME280;30542;47.928;2.138;2024-01-27T16:09:49;101928.69;;;21.06;46.77
44825;BME280;30542;47.928;2.138;2024-01-27T16:14:50;101922.88;;;21.09;46.70
44825;BME280;30542;47.928;2.138;2024-01-27T16:19:51;101933.38;;;21.11;46.64
44825;BME280;30542;47.928;2.138;2024-01-27T16:24:53;101937.69;;;21.12;46.59
44825;BME280;30542;47.928;2.138;2024-01-27T16:29:54;101940.34;;;21.12;46.45
44825;BME280;30542;47.928;2.138;2024-01-27T16:34:54;101938.50;;;21.13;46.21
44825;BME280;30542;47.928;2.138;2024-01-27T16:39:55;101921.81;;;21.10;46.03
44825;BME280;30542;47.928;2.138;2024-01-27T16:44:55;101920.78;;;21.12;46.03
44825;BME280;30542;47.928;2.138;2024-01-27T16:49:55;101920.31;;;21.15;45.69
44825;BME280;30542;47.928;2.138;2024-01-27T16:54:56;101916.59;;;21.16;45.66
44825;BME280;30542;47.928;2.138;2024-01-27T16:59:56;101923.13;;;21.20;45.82
44825;BME280;30542;47.928;2.138;2024-01-27T17:04:57;101923.13;;;21.20;45.76
44825;BME280;30542;47.928;2.138;2024-01-27T17:10:02;101899.13;;;21.25;45.46
44825;BME280;30542;47.928;2.138;2024-01-27T17:15:05;101890.03;;;21.26;45.53
44825;BME280;30542;47.928;2.138;2024-01-27T17:20:06;101884.66;;;21.26;45.44
44825;BME280;30542;47.928;2.138;2024-01-27T17:25:08;101886.28;;;21.27;45.17
44825;BME280;30542;47.928;2.138;2024-01-27T17:30:09;101897.81;;;21.27;44.90
44825;BME280;30542;47.928;2.138;2024-01-27T17:35:10;101887.78;;;21.23;44.88
44825;BME280;30542;47.928;2.138;2024-01-27T17:40:10;101886.06;;;21.28;45.00
44825;BME280;30542;47.928;2.138;2024-01-27T17:45:11;101881.09;;;21.32;44.95
44825;BME280;30542;47.928;2.138;2024-01-27T17:50:11;101886.44;;;21.32;44.70
44825;BME280;30542;47.928;2.138;2024-01-27T17:55:13;101896.91;;;21.33;44.91
44825;BME280;30542;47.928;2.138;2024-01-27T18:00:14;101915.44;;;21.35;44.78
44825;BME280;30542;47.928;2.138;2024-01-27T18:05:17;101909.63;;;21.38;44.59
44825;BME280;30542;47.928;2.138;2024-01-27T18:10:17;101903.00;;;21.41;44.66
44825;BME280;30542;47.928;2.138;2024-01-27T18:15:17;101895.50;;;21.43;44.60
44825;BME280;30542;47.928;2.138;2024-01-27T18:20:18;101885.59;;;21.43;44.52
44825;BME280;30542;47.928;2.138;2024-01-27T18:25:18;101891.56;;;21.45;44.49
44825;BME280;30542;47.928;2.138;2024-01-27T18:30:18;101897.47;;;21.47;44.50
44825;BME280;30542;47.928;2.138;2024-01-27T18:35:19;101899.47;;;21.52;44.40
44825;BME280;30542;47.928;2.138;2024-01-27T18:40:19;101897.63;;;21.52;44.26
44825;BME280;30542;47.928;2.138;2024-01-27T18:45:20;101897.84;;;21.51;44.40
44825;BME280;30542;47.928;2.138;2024-01-27T18:50:20;101892.81;;;21.54;44.30
44825;BME280;30542;47.928;2.138;2024-01-27T18:55:21;101899.00;;;21.55;44.31
44825;BME280;30542;47.928;2.138;2024-01-27T19:00:27;101894.09;;;21.52;44.24
44825;BME280;30542;47.928;2.138;2024-01-27T19:05:28;101904.81;;;21.52;44.13
44825;BME280;30542;47.928;2.138;2024-01-27T19:10:30;101894.59;;;21.49;44.31
44825;BME280;30542;47.928;2.138;2024-01-27T19:15:31;101887.00;;;21.46;44.21
44825;BME280;30542;47.928;2.138;2024-01-27T19:20:34;101858.59;;;21.33;44.30
44825;BME280;30542;47.928;2.138;2024-01-27T19:25:34;101878.41;;;21.32;44.50
44825;BME280;30542;47.928;2.138;2024-01-27T19:30:35;101881.97;;;21.26;44.31
44825;BME280;30542;47.928;2.138;2024-01-27T19:35:35;101890.03;;;21.26;44.63
44825;BME280;30542;47.928;2.138;2024-01-27T19:40:36;101887.22;;;21.21;44.49
44825;BME280;30542;47.928;2.138;2024-01-27T19:45:36;101891.44;;;21.17;44.61
44825;BME280;30542;47.928;2.138;2024-01-27T19:50:37;101889.44;;;21.12;44.60
44825;BME280;30542;47.928;2.138;2024-01-27T19:55:37;101883.13;;;21.06;44.64
44825;BME280;30542;47.928;2.138;2024-01-27T20:00:37;101903.53;;;21.07;44.83
44825;BME280;30542;47.928;2.138;2024-01-27T20:05:38;101904.25;;;21.03;44.76
44825;BME280;30542;47.928;2.138;2024-01-27T20:10:38;101900.72;;;21.02;44.67
44825;BME280;30542;47.928;2.138;2024-01-27T20:15:39;101903.06;;;20.99;44.80
44825;BME280;30542;47.928;2.138;2024-01-27T20:20:39;101890.94;;;20.96;44.80
44825;BME280;30542;47.928;2.138;2024-01-27T20:25:39;101882.81;;;20.91;44.61
44825;BME280;30542;47.928;2.138;2024-01-27T20:30:40;101875.81;;;20.90;44.71
44825;BME280;30542;47.928;2.138;2024-01-27T20:35:40;101870.31;;;20.85;44.49
44825;BME280;30542;47.928;2.138;2024-01-27T20:40:41;101876.16;;;20.82;44.44
44825;BME280;30542;47.928;2.138;2024-01-27T20:45:41;101869.50;;;20.73;44.65
44825;BME280;30542;47.928;2.138;2024-01-27T20:50:41;101876.00;;;20.77;44.55
44825;BME280;30542;47.928;2.138;2024-01-27T20:55:42;101852.75;;;20.66;44.50
44825;BME280;30542;47.928;2.138;2024-01-27T21:00:42;101863.22;;;20.67;44.43
44825;BME280;30542;47.928;2.138;2024-01-27T21:05:43;101860.78;;;20.66;44.40
44825;BME280;30542;47.928;2.138;2024-01-27T21:10:44;101870.88;;;20.64;44.56
44825;BME280;30542;47.928;2.138;2024-01-27T21:15:45;101855.25;;;20.60;44.40
44825;BME280;30542;47.928;2.138;2024-01-27T21:20:45;101851.22;;;20.58;44.23
44825;BME280;30542;47.928;2.138;2024-01-27T21:25:45;101852.47;;;20.55;44.63
44825;BME280;30542;47.928;2.138;2024-01-27T21:30:46;101838.28;;;20.55;44.43
44825;BME280;30542;47.928;2.138;2024-01-27T21:35:46;101836.19;;;20.57;44.38
44825;BME280;30542;47.928;2.138;2024-01-27T21:40:47;101841.88;;;20.60;44.23
44825;BME280;30542;47.928;2.138;2024-01-27T21:45:47;101822.22;;;20.67;44.33
44825;BME280;30542;47.928;2.138;2024-01-27T21:50:47;101820.28;;;20.74;43.89
44825;BME280;30542;47.928;2.138;2024-01-27T21:55:48;101812.91;;;20.81;43.93
44825;BME280;30542;47.928;2.138;2024-01-27T22:00:48;101806.63;;;20.87;43.75
44825;BME280;30542;47.928;2.138;2024-01-27T22:05:49;101792.53;;;20.92;43.53
44825;BME280;30542;47.928;2.138;2024-01-27T22:10:49;101785.88;;;20.94;43.40
44825;BME280;30542;47.928;2.138;2024-01-27T22:15:49;101782.53;;;20.99;43.17
44825;BME280;30542;47.928;2.138;2024-01-27T22:20:50;101770.66;;;20.95;43.23
44825;BME280;30542;47.928;2.138;2024-01-27T22:25:52;101775.66;;;21.03;42.98
44825;BME280;30542;47.928;2.138;2024-01-27T22:30:53;101760.41;;;21.03;42.87
44825;BME280;30542;47.928;2.138;2024-01-27T22:35:53;101750.72;;;21.02;43.00
44825;BME280;30542;47.928;2.138;2024-01-27T22:40:53;101747.94;;;20.97;42.89
44825;BME280;30542;47.928;2.138;2024-01-27T22:45:54;101743.88;;;20.95;43.04
44825;BME280;30542;47.928;2.138;2024-01-27T22:50:54;101742.13;;;20.89;43.03
44825;BME280;30542;47.928;2.138;2024-01-27T22:55:55;101739.59;;;20.82;42.99
44825;BME280;30542;47.928;2.138;2024-01-27T23:00:56;101740.50;;;20.76;43.19
44825;BME280;30542;47.928;2.138;2024-01-27T23:05:56;101736.91;;;20.70;43.05
44825;BME280;30542;47.928;2.138;2024-01-27T23:10:57;101734.44;;;20.69;43.19
44825;BME280;30542;47.928;2.138;2024-01-27T23:15:58;101732.25;;;20.66;43.16
44825;BME280;30542;47.928;2.138;2024-01-27T23:20:58;101728.41;;;20.62;43.10
44825;BME280;30542;47.928;2.138;2024-01-27T23:25:59;101710.59;;;20.55;42.92
44825;BME280;30542;47.928;2.138;2024-01-27T23:30:59;101715.59;;;20.52;42.93
44825;BME280;30542;47.928;2.138;2024-01-27T23:36:00;101709.69;;;20.50;42.85
44825;BME280;30542;47.928;2.138;2024-01-27T23:41:01;101703.94;;;20.46;42.89
44825;BME280;30542;47.928;2.138;2024-01-27T23:46:02;101685.66;;;20.43;42.85
44825;BME280;30542;47.928;2.138;2024-01-27T23:51:02;101664.50;;;20.42;42.80
44825;BME280;30542;47.928;2.138;2024-01-27T23:56:04;101659.63;;;20.39;42.84
